FW5676 Blagoevgrad BG current weather conditions

sailwx.info

Wind from 099 at 4 knots gusting 10

Air temperature 20.6° C
Dewpoint 17.4° C

Last reported at 2020-Aug-07 18:05 UTC.
Time now 2020-Aug-07 18:36 UTC

Location: N 42°01' E 023°06'.
View on Google Maps.

See reports from other nearby stations

  
Tides and Currents Weather Stations Pressure Air Temp Water Temp Dewpoint Dewpoint Depression Visibility Wind Speed Wind Dir Waves Ship Positions
date/time (UTC)wind fromknots sea level pressurealtimeterstation pressurevisibilityair tempwater tempwave heightnotes
2020-Aug-07 18:05 099 4 gusting 10 20.6
2020-Aug-07 17:20 186 5 gusting 13 21.7
2020-Aug-07 17:10 338 14 gusting 14 25.0
2020-Aug-07 17:05 340 13 gusting 17 25.0
2020-Aug-07 17:00 043 12 gusting 13 25.0
2020-Aug-07 16:55 045 12 gusting 12 25.0
2020-Aug-07 16:50 045 12 gusting 12 25.0
2020-Aug-07 16:40 062 8 gusting 12 25.0
2020-Aug-07 16:35 350 3 gusting 11 26.1
2020-Aug-07 16:15 022 8 gusting 8 26.7
2020-Aug-07 16:10 022 8 gusting 10 26.7
2020-Aug-07 16:05 344 14 gusting 15 27.2
2020-Aug-07 16:00 339 15 gusting 15 27.2
2020-Aug-07 15:50 339 15 gusting 15 27.2
2020-Aug-07 15:40 338 14 gusting 15 27.2
2020-Aug-07 15:30 001 13 gusting 13 27.2
2020-Aug-07 15:15 27.2
2020-Aug-07 15:10 27.2
2020-Aug-07 15:05 27.2
2020-Aug-07 14:50 338 14 gusting 19 27.2
2020-Aug-07 14:45 27.2
2020-Aug-07 14:40 27.8
2020-Aug-07 14:35 358 10 gusting 13 27.8
2020-Aug-07 14:30 307 6 gusting 13 27.8
2020-Aug-07 14:25 293 5 gusting 8 27.8
2020-Aug-07 14:20 282 1 gusting 6 27.8
2020-Aug-07 14:15 173 1 gusting 6 27.2
2020-Aug-07 14:10 213 1 gusting 6 27.8
2020-Aug-07 14:05 212 2 gusting 5 27.8
2020-Aug-07 13:55 212 0 gusting 2 27.8
2020-Aug-07 13:50 195 1 gusting 5 27.2
2020-Aug-07 13:45 208 4 gusting 8 27.2
2020-Aug-07 13:35 302 1 gusting 6 26.7
2020-Aug-07 13:30 205 0 gusting 5 26.7
2020-Aug-07 13:25 238 0 gusting 6 26.7
2020-Aug-07 13:20 196 5 gusting 8 27.2
2020-Aug-07 13:05 276 27.2
2020-Aug-07 13:00 019 1 gusting 5 27.2
2020-Aug-07 12:55 029 2 gusting 5 27.2
2020-Aug-07 12:50 344 4 gusting 5 27.8
2020-Aug-07 12:45 274 1 gusting 6 27.8
2020-Aug-07 12:35 052 26.7
2020-Aug-07 12:30 225 1 gusting 4 26.1
2020-Aug-07 12:15 317 1 gusting 2 25.0
2020-Aug-07 12:05 349 1 gusting 6 25.0
2020-Aug-07 12:00 332 2 gusting 6 25.0
2020-Aug-07 11:55 228 0 gusting 2 25.6
2020-Aug-07 11:45 317 0 gusting 2 25.0
2020-Aug-07 11:40 011 1 gusting 4 25.0
2020-Aug-07 11:35 021 2 gusting 6 25.0
2020-Aug-07 11:25 334 1 gusting 8 25.0
2020-Aug-07 11:15 26.1
2020-Aug-07 11:10 314 2 gusting 7 25.6
2020-Aug-07 11:05 265 1 gusting 8 25.6
2020-Aug-07 11:00 013 4 gusting 10 25.6
2020-Aug-07 10:55 047 1 gusting 8 26.1
2020-Aug-07 10:50 272 2 gusting 6 26.1
2020-Aug-07 10:35 018 3 gusting 6 25.0
2020-Aug-07 10:30 278 3 gusting 6 25.0
2020-Aug-07 10:20 231 5 gusting 6 25.0
2020-Aug-07 10:10 268 4 gusting 7 25.0
2020-Aug-07 10:00 336 6 gusting 11 25.0
2020-Aug-07 09:50 102 0 gusting 2 25.6
2020-Aug-07 09:45 230 1 gusting 5 25.0
2020-Aug-07 09:40 325 1 gusting 2 25.0
2020-Aug-07 09:35 354 25.0
2020-Aug-07 09:30 001 0 gusting 4 24.4
2020-Aug-07 09:15 186 0 gusting 2 22.8
2020-Aug-07 09:05 180 2 gusting 5 22.8
2020-Aug-07 09:00 075 22.2
2020-Aug-07 08:50 275 22.2
2020-Aug-07 08:40 252 1 gusting 5 22.2
2020-Aug-07 08:35 264 22.2
2020-Aug-07 08:30 185 22.2
2020-Aug-07 08:25 295 4 gusting 8 21.7
2020-Aug-07 08:10 316 4 gusting 7 22.8
2020-Aug-07 08:05 053 22.8
2020-Aug-07 08:00 020 0 gusting 2 22.2
2020-Aug-07 07:55 021 22.2
2020-Aug-07 07:45 246 22.8
2020-Aug-07 07:40 202 22.8
2020-Aug-07 07:35 218 22.8
2020-Aug-07 07:30 320 21.7
2020-Aug-07 07:25 330 21.1
2020-Aug-07 07:20 220 21.1
2020-Aug-07 07:15 242 0 gusting 2 20.6
2020-Aug-07 07:10 204 20.6
2020-Aug-07 07:05 239 0 gusting 1 20.6
2020-Aug-07 06:55 312 20.6
2020-Aug-07 06:50 302 20.6
2020-Aug-07 06:45 251 0 gusting 1 20.6
2020-Aug-07 06:40 229 20.6
2020-Aug-07 06:35 227 20.0
2020-Aug-07 06:30 159 0 gusting 5 19.4
2020-Aug-07 06:25 209 2 gusting 5 19.4
2020-Aug-07 06:20 238 0 gusting 2 19.4
2020-Aug-07 06:15 174 0 gusting 1 18.9
2020-Aug-07 06:10 183 18.9
2020-Aug-07 06:05 189 0 gusting 2 18.3
2020-Aug-07 06:00 178 18.3
2020-Aug-07 05:55 172 18.3
2020-Aug-07 05:50 193 0 gusting 2 18.3
2020-Aug-07 05:40 210 0 gusting 2 17.8
2020-Aug-07 05:25 199 1 gusting 4 17.8
2020-Aug-07 05:15 190 2 gusting 2 17.8
2020-Aug-07 05:10 178 0 gusting 1 17.8
2020-Aug-07 04:50 058 17.8
2020-Aug-07 04:45 040 2 gusting 5 17.8
2020-Aug-07 04:35 358 17.8
2020-Aug-07 04:25 028 1 gusting 5 17.8
2020-Aug-07 04:15 052 4 gusting 6 17.8
2020-Aug-07 04:10 068 2 gusting 5 17.8
2020-Aug-07 03:55 041 5 gusting 6 17.2
2020-Aug-07 03:50 037 5 gusting 7 17.2
2020-Aug-07 03:45 044 4 gusting 7 17.2
2020-Aug-07 03:40 042 2 gusting 5 17.2
2020-Aug-07 03:35 038 5 gusting 6 17.2
2020-Aug-07 03:20 048 3 gusting 5 17.2
2020-Aug-07 03:10 054 5 gusting 7 17.2
2020-Aug-07 03:05 045 4 gusting 6 17.2
2020-Aug-07 03:00 046 4 gusting 6 17.2
2020-Aug-07 02:50 037 17.8
2020-Aug-07 02:45 214 0 gusting 2 17.8
2020-Aug-07 02:40 188 0 gusting 2 17.2
2020-Aug-07 02:35 17.2
2020-Aug-07 02:25 041 2 gusting 5 17.2
2020-Aug-07 02:20 037 5 gusting 7 17.2
2020-Aug-07 02:10 021 2 gusting 4 17.2
2020-Aug-07 01:55 272 17.2
2020-Aug-07 01:50 198 0 gusting 1 17.2
2020-Aug-07 01:45 163 17.2
2020-Aug-07 01:35 185 17.2
2020-Aug-07 01:30 045 1 gusting 2 17.2
2020-Aug-07 01:25 052 0 gusting 1 17.2
2020-Aug-07 01:20 066 0 gusting 1 17.2
2020-Aug-07 01:15 051 17.2
2020-Aug-07 01:10 045 17.2
2020-Aug-07 01:00 045 1 gusting 2 16.7
2020-Aug-07 00:55 052 2 gusting 4 16.7
2020-Aug-07 00:50 034 1 gusting 2 16.7
2020-Aug-07 00:45 043 0 gusting 2 16.7
2020-Aug-07 00:40 050 17.2
2020-Aug-07 00:35 067 17.2
2020-Aug-07 00:30 044 0 gusting 1 17.2
2020-Aug-07 00:10 190 17.2
2020-Aug-07 00:05 338 17.2
2020-Aug-06 23:50 030 0 gusting 4 17.2
2020-Aug-06 23:45 020 2 gusting 4 17.2
2020-Aug-06 23:40 029 5 gusting 6 17.2
2020-Aug-06 23:35 024 2 gusting 6 17.2
2020-Aug-06 23:30 030 3 gusting 5 17.2
2020-Aug-06 23:25 026 2 gusting 5 17.2
2020-Aug-06 23:20 022 2 gusting 5 17.2
2020-Aug-06 23:15 018 1 gusting 2 17.2
2020-Aug-06 23:10 031 17.2
2020-Aug-06 22:50 047 17.8
2020-Aug-06 22:45 112 0 gusting 0 17.8
2020-Aug-06 22:40 111 17.8
2020-Aug-06 22:35 116 0 gusting 2 17.8
2020-Aug-06 22:30 097 17.8
2020-Aug-06 22:25 213 17.8
2020-Aug-06 22:20 301 17.8
2020-Aug-06 22:15 201 17.8
2020-Aug-06 22:10 057 0 gusting 2 17.8
2020-Aug-06 22:05 061 0 gusting 1 17.8
2020-Aug-06 22:00 029 1 gusting 4 17.8
2020-Aug-06 21:55 032 2 gusting 4 17.8
2020-Aug-06 21:45 068 17.8
2020-Aug-06 21:40 027 2 gusting 5 17.8
2020-Aug-06 21:35 048 0 gusting 4 17.8
2020-Aug-06 21:25 049 2 gusting 4 17.8
2020-Aug-06 21:15 068 1 gusting 2 17.8
2020-Aug-06 21:10 067 17.8
2020-Aug-06 21:05 339 0 gusting 2 17.8
2020-Aug-06 21:00 045 2 gusting 2 17.8
2020-Aug-06 20:55 003 0 gusting 4 17.8
2020-Aug-06 20:50 041 0 gusting 2 18.3
2020-Aug-06 20:45 328 18.3
2020-Aug-06 20:35 031 17.8
2020-Aug-06 20:30 036 1 gusting 2 18.3
2020-Aug-06 20:25 032 1 gusting 4 18.3
2020-Aug-06 20:20 045 2 gusting 4 18.3
2020-Aug-06 20:15 036 1 gusting 2 18.3
2020-Aug-06 20:10 051 1 gusting 2 18.3
2020-Aug-06 20:05 011 0 gusting 1 18.3
2020-Aug-06 20:00 033 1 gusting 2 18.3
2020-Aug-06 19:55 034 2 gusting 4 18.9
2020-Aug-06 19:50 029 2 gusting 2 18.9
2020-Aug-06 19:40 022 19.4
2020-Aug-06 19:30 042 19.4
2020-Aug-06 19:20 199 0 gusting 1 19.4
2020-Aug-06 19:10 045 0 gusting 2 20.0
2020-Aug-06 19:05 108 20.0
2020-Aug-06 19:00 090 20.0
2020-Aug-06 18:50 184 0 gusting 1 20.6
2020-Aug-06 18:45 263 20.6
2020-Aug-06 18:40 240 20.6
2020-Aug-06 18:35 195 20.6
2020-Aug-06 18:25 099 0 gusting 2 20.6
2020-Aug-06 18:20 311 20.6
2020-Aug-06 18:15 053 20.6
2020-Aug-06 18:10 016 2 gusting 2 20.6
2020-Aug-06 18:05 029 2 gusting 2 20.6
2020-Aug-06 18:00 063 20.6
2020-Aug-06 17:35 170 1 gusting 6 21.1
2020-Aug-06 17:30 180 0 gusting 1 21.1
2020-Aug-06 17:25 135 21.1
2020-Aug-06 17:20 203 0 gusting 2 21.1
2020-Aug-06 17:15 242 4 gusting 11 21.1
2020-Aug-06 17:05 214 5 gusting 11 21.1
2020-Aug-06 17:00 199 6 gusting 17 21.1
2020-Aug-06 16:55 196 4 gusting 13 21.1
2020-Aug-06 16:45 213 6 gusting 12 21.7
2020-Aug-06 16:35 226 8 gusting 14 21.7
2020-Aug-06 16:25 229 2 gusting 10 22.2
2020-Aug-06 16:20 274 6 gusting 12 22.2
2020-Aug-06 16:10 251 6 gusting 13 22.2
2020-Aug-06 16:05 216 5 gusting 12 22.8
2020-Aug-06 15:50 193 5 gusting 7 22.8
2020-Aug-06 15:40 197 5 gusting 7 22.8
2020-Aug-06 15:35 232 4 gusting 8 22.8
2020-Aug-06 15:30 227 1 gusting 7 22.8
2020-Aug-06 15:25 266 5 gusting 8 22.8
2020-Aug-06 15:20 225 8 gusting 11 22.8
2020-Aug-06 15:15 219 5 gusting 11 23.3
2020-Aug-06 15:05 217 6 gusting 10 23.3
2020-Aug-06 14:55 198 6 gusting 8 23.3
2020-Aug-06 14:50 193 6 gusting 8 23.9
2020-Aug-06 14:45 026 23.3
2020-Aug-06 14:40 196 4 gusting 8 23.3
2020-Aug-06 14:35 183 3 gusting 10 23.9
2020-Aug-06 14:30 237 6 gusting 11 23.9
2020-Aug-06 14:25 269 7 gusting 17 23.9
2020-Aug-06 14:20 239 8 gusting 13 25.0
2020-Aug-06 14:15 231 4 gusting 13 25.0
2020-Aug-06 13:55 218 8 gusting 14 26.1
2020-Aug-06 13:45 272 6 gusting 13 26.1
2020-Aug-06 13:40 213 2 gusting 12 26.7
2020-Aug-06 13:30 231 12 gusting 18 26.7
2020-Aug-06 13:20 266 5 gusting 13 27.2
2020-Aug-06 13:15 247 11 gusting 22 27.2
2020-Aug-06 12:55 272 1 gusting 7 28.3
2020-Aug-06 12:40 300 1 gusting 5 27.8
2020-Aug-06 12:35 260 1 gusting 6 27.8
2020-Aug-06 12:25 204 2 gusting 5 28.3
2020-Aug-06 12:20 231 3 gusting 6 28.3
2020-Aug-06 12:10 231 6 gusting 10 28.9
2020-Aug-06 12:05 011 1 gusting 5 29.4
2020-Aug-06 12:00 236 1 gusting 5 28.9
2020-Aug-06 11:50 205 4 gusting 7 28.3
2020-Aug-06 11:30 234 1 gusting 4 27.2
2020-Aug-06 11:25 021 0 gusting 1 27.2
2020-Aug-06 11:15 069 0 gusting 2 27.2
2020-Aug-06 11:10 299 0 gusting 5 27.2
2020-Aug-06 11:05 330 2 gusting 6 27.2
2020-Aug-06 11:00 051 3 gusting 5 27.2
2020-Aug-06 10:55 001 0 gusting 10 27.2
2020-Aug-06 10:50 006 7 gusting 10 27.8
2020-Aug-06 10:45 289 7 gusting 11 27.8
2020-Aug-06 10:40 316 3 gusting 8 27.2
2020-Aug-06 10:35 209 6 gusting 10 26.7
2020-Aug-06 10:25 334 2 gusting 8 26.7
2020-Aug-06 10:15 006 9 gusting 13 26.1
2020-Aug-06 10:05 322 4 gusting 13 26.1
2020-Aug-06 10:00 301 6 gusting 12 26.1
2020-Aug-06 09:55 332 10 gusting 13 26.1
2020-Aug-06 09:50 296 3 gusting 12 25.6
2020-Aug-06 09:45 322 1 gusting 11 25.6
2020-Aug-06 09:40 348 10 gusting 11 25.6
2020-Aug-06 09:25 007 2 gusting 8 25.0
2020-Aug-06 09:15 341 7 gusting 10 25.0
2020-Aug-06 09:10 338 5 gusting 10 24.4
2020-Aug-06 09:00 356 4 gusting 7 23.9
2020-Aug-06 08:45 312 4 gusting 10 23.3
2020-Aug-06 08:30 300 4 gusting 6 23.3
2020-Aug-06 08:20 334 4 gusting 7 22.8
2020-Aug-06 08:10 321 1 gusting 6 22.8
2020-Aug-06 08:05 279 1 gusting 5 22.2
2020-Aug-06 08:00 013 5 gusting 8 22.2
2020-Aug-06 07:55 326 1 gusting 7 22.2
2020-Aug-06 07:40 043 6 gusting 6 21.7
2020-Aug-06 07:30 352 4 gusting 6 21.7
2020-Aug-06 07:25 314 2 gusting 6 21.7
2020-Aug-06 07:20 346 0 gusting 2 21.7
2020-Aug-06 07:15 277 0 gusting 2 21.7
2020-Aug-06 07:00 272 21.7
2020-Aug-06 06:55 298 21.1
2020-Aug-06 06:50 186 21.1
2020-Aug-06 06:45 103 20.0
2020-Aug-06 06:35 185 0 gusting 4 18.9
2020-Aug-06 06:25 220 0 gusting 5 19.4
2020-Aug-06 06:20 230 1 gusting 4 18.9
2020-Aug-06 06:15 219 1 gusting 5 18.9
2020-Aug-06 06:05 199 18.9
2020-Aug-06 06:00 292 18.9
2020-Aug-06 05:45 349 1 gusting 2 17.8
2020-Aug-06 05:40 323 0 gusting 1 17.8
2020-Aug-06 05:35 022 17.8
2020-Aug-06 05:25 338 17.2
2020-Aug-06 05:10 197 17.2
2020-Aug-06 05:05 240 17.2
2020-Aug-06 04:55 198 1 gusting 1 17.2
2020-Aug-06 04:50 180 17.2
2020-Aug-06 04:45 290 17.2
2020-Aug-06 04:40 315 16.7
2020-Aug-06 04:35 338 16.7
2020-Aug-06 04:30 299 16.7
2020-Aug-06 04:25 270 16.7
2020-Aug-06 04:20 022 2 gusting 4 16.7
2020-Aug-06 04:10 033 16.7
2020-Aug-06 04:05 045 2 gusting 4 16.7
2020-Aug-06 03:50 014 17.2
2020-Aug-06 03:35 054 16.7
2020-Aug-06 03:30 16.7
2020-Aug-06 03:25 162 16.7
2020-Aug-06 03:15 068 16.7
2020-Aug-06 03:05 062 16.7
2020-Aug-06 02:50 022 16.7
2020-Aug-06 02:40 024 0 gusting 2 16.7
2020-Aug-06 02:35 045 1 gusting 2 16.7
2020-Aug-06 02:25 029 0 gusting 2 16.7
2020-Aug-06 02:15 352 0 gusting 2 17.2
2020-Aug-06 02:10 323 17.2
2020-Aug-06 01:40 201 17.2
2020-Aug-06 01:30 208 0 gusting 2 16.7
2020-Aug-06 01:20 207 0 gusting 4 16.7
2020-Aug-06 01:10 184 16.7
2020-Aug-06 01:05 103 0 gusting 1 16.7
2020-Aug-06 01:00 234 16.7
2020-Aug-06 00:55 183 0 gusting 1 16.7
2020-Aug-06 00:50 180 1 gusting 5 16.7
2020-Aug-06 00:40 260 1 gusting 6 17.2
2020-Aug-06 00:35 260 4 gusting 7 17.2
2020-Aug-06 00:25 341 1 gusting 5 17.2
2020-Aug-06 00:20 034 2 gusting 6 17.2
2020-Aug-06 00:15 046 4 gusting 6 17.2
2020-Aug-06 00:10 043 1 gusting 4 17.2
2020-Aug-06 00:05 024 2 gusting 4 16.7
2020-Aug-06 00:00 016 1 gusting 4 16.7
2020-Aug-05 23:55 056 1 gusting 4 16.7
2020-Aug-05 23:50 054 6 gusting 7 16.7
2020-Aug-05 23:45 046 5 gusting 6 17.2
2020-Aug-05 23:35 033 2 gusting 4 17.2
2020-Aug-05 23:25 345 17.2
2020-Aug-05 23:20 236 0 gusting 0 17.2
2020-Aug-05 23:15 292 0 gusting 4 17.2
2020-Aug-05 23:10 257 0 gusting 4 17.2
2020-Aug-05 23:00 281 2 gusting 7 17.2
2020-Aug-05 22:45 022 3 gusting 6 17.8
2020-Aug-05 22:35 327 2 gusting 4 17.2
2020-Aug-05 22:30 002 0 gusting 1 17.2
2020-Aug-05 22:25 326 4 gusting 6 17.2
2020-Aug-05 22:20 307 5 gusting 8 17.2
2020-Aug-05 22:10 050 4 gusting 7 17.2
2020-Aug-05 22:00 112 1 gusting 7 17.2
2020-Aug-05 21:55 177 6 gusting 11 17.2
2020-Aug-05 21:45 172 6 gusting 8 17.8
2020-Aug-05 21:35 198 17.8
2020-Aug-05 21:30 044 0 gusting 1 17.2
2020-Aug-05 21:25 357 17.2
2020-Aug-05 21:20 188 17.2
2020-Aug-05 21:15 270 17.2
2020-Aug-05 21:05 082 17.2
2020-Aug-05 21:00 019 17.2
2020-Aug-05 20:55 055 17.2
2020-Aug-05 20:35 041 17.8
2020-Aug-05 20:20 025 0 gusting 2 17.8
2020-Aug-05 20:10 043 1 gusting 5 17.8
2020-Aug-05 20:05 009 1 gusting 2 17.8
2020-Aug-05 20:00 032 2 gusting 6 17.8
2020-Aug-05 19:55 041 4 gusting 6 17.8
2020-Aug-05 19:50 029 1 gusting 4 17.8
2020-Aug-05 19:45 045 2 gusting 5 17.8
2020-Aug-05 19:40 057 2 gusting 4 17.8
2020-Aug-05 19:35 048 0 gusting 2 17.8
2020-Aug-05 19:30 002 0 gusting 4 17.8
2020-Aug-05 19:25 040 1 gusting 2 17.8
2020-Aug-05 19:20 024 2 gusting 4 17.8
2020-Aug-05 19:15 043 2 gusting 4 18.3
2020-Aug-05 19:10 022 2 gusting 4 18.3
2020-Aug-05 19:05 013 1 gusting 2 18.3
2020-Aug-05 19:00 007 2 gusting 4 18.3
2020-Aug-05 18:55 006 3 gusting 6 18.3
2020-Aug-05 18:50 022 5 gusting 6 18.3
2020-Aug-05 18:40 025 5 gusting 6 18.3
2020-Aug-05 18:35 032 5 gusting 8 18.3
2020-Aug-05 18:30 020 2 gusting 6 18.3
2020-Aug-05 18:25 043 4 gusting 6 18.3
2020-Aug-05 18:15 038 2 gusting 4 18.3
2020-Aug-05 18:10 035 1 gusting 4 18.3
2020-Aug-05 18:05 020 2 gusting 6 18.3
2020-Aug-05 18:00 049 4 gusting 7 18.3